Time;durP1;ratioP1;P1;durP2;ratioP2;P2;SDS_P1;SDS_P2;PMS_P1;PMS_P2;Temp;Humidity;BMP_temperature;BMP_pressure;BME280_temperature;BME280_humidity;BME280_pressure;Samples;Min_cycle;Max_cycle;Signal;HPM_P1;HPM_P2
2023/08/20 00:02:01;;;;;;;12.63;9.70;;;;;;;22.22;100.00;101514.41;5022059;28;20041;-63
2023/08/20 00:04:28;;;;;;;12.05;9.10;;;;;;;22.25;100.00;101509.84;5015919;28;20111;-63
2023/08/20 00:06:53;;;;;;;10.98;9.30;;;;;;;22.28;100.00;101509.72;5014525;28;20041;-63
2023/08/20 00:09:19;;;;;;;14.57;9.52;;;;;;;22.30;100.00;101499.97;5010542;28;20499;-63
2023/08/20 00:11:44;;;;;;;14.25;11.07;;;;;;;22.30;100.00;101507.88;5014899;28;20117;-63
2023/08/20 00:14:17;;;;;;;15.88;10.85;;;;;;;22.27;100.00;101505.38;5010807;28;20048;-63
2023/08/20 00:16:43;;;;;;;11.43;9.60;;;;;;;22.25;100.00;101511.63;5014824;28;20439;-63
2023/08/20 00:19:09;;;;;;;11.25;9.35;;;;;;;22.22;100.00;101509.13;5009443;28;20083;-63
2023/08/20 00:21:35;;;;;;;10.35;8.70;;;;;;;22.20;100.00;101516.25;5007088;28;20068;-63
2023/08/20 00:24:01;;;;;;;11.27;9.45;;;;;;;22.17;100.00;101516.41;5005860;28;20045;-63
2023/08/20 00:26:26;;;;;;;10.68;9.40;;;;;;;22.14;100.00;101524.44;5008654;28;21036;-63
2023/08/20 00:28:52;;;;;;;10.63;8.48;;;;;;;22.12;100.00;101521.00;5009412;28;20158;-63
2023/08/20 00:31:17;;;;;;;10.75;8.57;;;;;;;22.11;100.00;101519.28;5010108;28;20429;-63
2023/08/20 00:33:43;;;;;;;9.70;8.70;;;;;;;22.08;100.00;101509.75;5007878;28;20047;-63
2023/08/20 00:36:08;;;;;;;10.93;8.80;;;;;;;22.06;100.00;101516.84;5011311;28;20124;-63
2023/08/20 00:38:33;;;;;;;12.93;9.05;;;;;;;22.04;100.00;101521.34;5007689;28;20029;-63
2023/08/20 00:40:59;;;;;;;11.60;9.07;;;;;;;22.00;100.00;101524.16;5005930;28;20424;-63
2023/08/20 00:43:24;;;;;;;11.40;9.55;;;;;;;21.95;100.00;101531.41;5001970;28;20139;-63
2023/08/20 00:45:50;;;;;;;12.98;9.20;;;;;;;21.88;100.00;101535.25;5006731;28;20042;-63
2023/08/20 00:48:17;;;;;;;10.00;8.68;;;;;;;21.82;100.00;101528.44;5007196;28;20554;-63
2023/08/20 00:50:42;;;;;;;12.00;10.38;;;;;;;21.73;100.00;101528.81;5005313;28;20033;-63
2023/08/20 00:53:11;;;;;;;10.93;9.80;;;;;;;21.65;100.00;101536.19;5008571;28;20519;-63
2023/08/20 00:55:37;;;;;;;11.82;10.02;;;;;;;21.61;100.00;101534.63;5012980;28;20048;-63
2023/08/20 00:58:03;;;;;;;10.68;9.48;;;;;;;21.55;100.00;101535.72;4998691;28;20037;-63
2023/08/20 01:00:28;;;;;;;12.80;9.77;;;;;;;21.51;100.00;101539.38;5011579;28;20128;-63
2023/08/20 01:02:53;;;;;;;14.00;9.80;;;;;;;21.48;100.00;101536.00;5005093;28;20048;-62
2023/08/20 01:05:19;;;;;;;12.95;10.85;;;;;;;21.44;100.00;101535.28;5008615;28;20063;-63
2023/08/20 01:08:21;;;;;;;13.20;11.18;;;;;;;21.38;100.00;101527.63;5008642;28;20125;-63
2023/08/20 01:10:55;;;;;;;15.07;11.05;;;;;;;21.31;100.00;101520.94;5007039;28;20045;-63
2023/08/20 01:13:21;;;;;;;18.63;12.13;;;;;;;21.27;100.00;101516.69;5009816;28;20113;-63
2023/08/20 01:15:46;;;;;;;13.30;10.10;;;;;;;21.24;100.00;101524.72;5005772;28;20040;-63
2023/08/20 01:18:11;;;;;;;14.77;10.23;;;;;;;21.21;100.00;101523.06;5006124;28;20109;-63
2023/08/20 01:20:44;;;;;;;9.93;8.77;;;;;;;21.20;100.00;101515.22;5029803;28;20730;-63
2023/08/20 01:23:29;;;;;;;15.07;10.80;;;;;;;21.19;100.00;101510.91;5008006;28;20519;-63
2023/08/20 01:26:28;;;;;;;12.93;10.93;;;;;;;21.15;100.00;101507.53;5009375;28;20441;-63
2023/08/20 01:28:54;;;;;;;9.23;8.13;;;;;;;21.14;100.00;101502.31;5011017;28;20037;-63
2023/08/20 01:31:20;;;;;;;10.05;8.50;;;;;;;21.12;100.00;101506.81;5009325;28;20773;-63
2023/08/20 01:33:45;;;;;;;12.80;9.77;;;;;;;21.09;100.00;101510.41;5013884;28;20041;-63
2023/08/20 01:36:11;;;;;;;12.70;10.68;;;;;;;21.07;100.00;101507.00;5002737;28;20095;-63
2023/08/20 01:38:37;;;;;;;11.70;9.02;;;;;;;21.05;100.00;101505.31;5013523;28;20714;-63
2023/08/20 01:41:04;;;;;;;11.43;9.57;;;;;;;21.04;100.00;101504.50;5008771;28;20062;-62
2023/08/20 01:43:29;;;;;;;12.75;9.50;;;;;;;21.02;100.00;101506.31;5011923;28;20553;-62
2023/08/20 01:45:55;;;;;;;12.35;9.82;;;;;;;21.02;100.00;101506.31;5006258;28;20046;-63
2023/08/20 01:48:20;;;;;;;16.95;11.20;;;;;;;21.00;100.00;101521.28;5004816;28;20125;-62
2023/08/20 01:50:45;;;;;;;17.45;13.15;;;;;;;21.03;100.00;101522.94;5012448;28;20048;-63
2023/08/20 01:53:11;;;;;;;15.63;12.85;;;;;;;21.03;100.00;101528.19;5010054;28;20042;-63
2023/08/20 01:55:37;;;;;;;15.50;12.13;;;;;;;21.03;100.00;101530.81;5011710;28;20387;-63
2023/08/20 01:58:02;;;;;;;14.50;12.73;;;;;;;21.01;100.00;101528.28;5000671;28;20049;-63
2023/08/20 02:00:28;;;;;;;21.50;15.30;;;;;;;21.04;100.00;101519.41;5008121;28;20057;-63
2023/08/20 02:02:54;;;;;;;16.67;12.98;;;;;;;21.02;100.00;101524.69;5009762;28;22089;-63
2023/08/20 02:05:19;;;;;;;15.02;12.25;;;;;;;21.02;100.00;101524.69;5014660;28;20136;-63
2023/08/20 02:07:45;;;;;;;14.75;12.45;;;;;;;21.01;100.00;101530.03;5011191;28;20060;-63
2023/08/20 02:10:10;;;;;;;14.50;11.57;;;;;;;21.02;100.00;101526.47;5013677;28;20144;-63
2023/08/20 02:12:35;;;;;;;16.27;11.60;;;;;;;21.03;100.00;101534.31;5008684;28;20072;-63
2023/08/20 02:15:02;;;;;;;13.70;11.93;;;;;;;21.03;100.00;101536.09;5015642;28;20445;-62
2023/08/20 02:17:27;;;;;;;12.43;11.02;;;;;;;21.03;100.00;101538.72;5006188;28;20034;-63
2023/08/20 02:19:52;;;;;;;16.75;12.27;;;;;;;21.01;100.00;101536.16;5009036;28;20088;-63
2023/08/20 02:22:20;;;;;;;12.13;10.13;;;;;;;21.00;100.00;101530.94;5003621;28;20061;-63
2023/08/20 02:24:45;;;;;;;13.85;11.35;;;;;;;20.99;100.00;101529.22;5012125;28;20069;-63
2023/08/20 02:27:11;;;;;;;11.75;10.30;;;;;;;20.96;100.00;101532.81;5008973;28;20109;-63
2023/08/20 02:29:36;;;;;;;13.68;10.85;;;;;;;20.93;100.00;101535.56;5012735;28;20033;-63
2023/08/20 02:32:02;;;;;;;14.80;11.60;;;;;;;20.89;100.00;101534.00;5013440;28;20041;-63
2023/08/20 02:34:27;;;;;;;12.95;10.98;;;;;;;20.85;100.00;101545.53;5013369;28;20079;-63
2023/08/20 02:36:52;;;;;;;11.88;9.68;;;;;;;20.81;100.00;101535.22;5009896;28;20133;-63
2023/08/20 02:39:18;;;;;;;14.73;11.70;;;;;;;20.75;100.00;101536.28;5005976;28;20034;-62
2023/08/20 02:41:43;;;;;;;14.30;12.10;;;;;;;20.70;100.00;101535.59;5010265;28;20038;-63
2023/08/20 02:44:09;;;;;;;12.48;10.18;;;;;;;20.67;100.00;101546.19;5010245;28;20429;-63
2023/08/20 02:46:34;;;;;;;14.80;11.48;;;;;;;20.64;100.00;101543.69;5007319;28;20510;-63
2023/08/20 02:49:00;;;;;;;12.55;10.77;;;;;;;20.63;100.00;101555.97;5013193;28;20038;-63
2023/08/20 02:51:25;;;;;;;13.13;10.80;;;;;;;20.63;100.00;101561.22;5010467;28;20045;-63
2023/08/20 02:53:51;;;;;;;14.02;11.32;;;;;;;20.62;100.00;101559.53;5015968;28;20034;-63
2023/08/20 02:56:16;;;;;;;12.52;10.00;;;;;;;20.62;100.00;101559.53;5017474;28;20050;-63
2023/08/20 02:58:41;;;;;;;12.75;10.93;;;;;;;20.64;100.00;101569.94;5016364;28;20045;-63
2023/08/20 03:01:17;;;;;;;13.35;10.88;;;;;;;20.65;100.00;101571.69;5019867;28;20175;-63
2023/08/20 03:03:43;;;;;;;11.65;9.35;;;;;;;20.68;100.00;101576.81;5008686;28;20052;-63
2023/08/20 03:06:08;;;;;;;12.23;10.50;;;;;;;20.71;100.00;101571.47;5020798;28;20033;-62
2023/08/20 03:08:33;;;;;;;13.70;11.48;;;;;;;20.72;100.00;101574.03;5006857;28;20160;-61
2023/08/20 03:10:59;;;;;;;16.23;12.02;;;;;;;20.76;100.00;101571.28;5016154;28;20549;-61
2023/08/20 03:13:24;;;;;;;12.43;10.05;;;;;;;20.75;100.00;101566.97;5010034;28;20061;-61
2023/08/20 03:15:50;;;;;;;12.77;10.20;;;;;;;20.74;100.00;101563.50;5011679;28;20049;-61
2023/08/20 03:18:15;;;;;;;11.63;9.25;;;;;;;20.72;100.00;101566.16;5004396;28;20558;-61
2023/08/20 03:20:40;;;;;;;12.40;9.15;;;;;;;20.72;100.00;101569.72;5011448;28;20029;-61
2023/08/20 03:23:06;;;;;;;12.07;10.43;;;;;;;20.71;100.00;101566.22;4998039;28;20042;-62
2023/08/20 03:25:31;;;;;;;12.02;9.60;;;;;;;20.69;100.00;101565.41;5011433;28;20042;-62
2023/08/20 03:27:56;;;;;;;12.02;10.50;;;;;;;20.67;100.00;101561.97;5010649;28;20041;-61
2023/08/20 03:30:22;;;;;;;15.40;9.88;;;;;;;20.62;100.00;101563.91;5012704;28;20048;-61
2023/08/20 03:32:47;;;;;;;12.15;9.43;;;;;;;20.56;100.00;101562.38;5014190;28;20030;-62
2023/08/20 03:35:13;;;;;;;11.75;9.98;;;;;;;20.54;100.00;101569.44;5006740;28;20037;-61
2023/08/20 03:37:38;;;;;;;11.90;9.45;;;;;;;20.56;100.00;101578.13;5003612;28;20038;-61
2023/08/20 03:40:04;;;;;;;10.57;8.55;;;;;;;20.58;100.00;101578.06;5004924;28;20064;-61
2023/08/20 03:42:30;;;;;;;11.13;8.75;;;;;;;20.60;100.00;101576.25;5007244;28;20045;-62
2023/08/20 03:44:56;;;;;;;9.60;7.95;;;;;;;20.61;100.00;101570.06;5009342;28;20045;-62
2023/08/20 03:47:21;;;;;;;10.10;8.82;;;;;;;20.64;100.00;101572.59;5010051;28;20666;-61
2023/08/20 03:49:50;;;;;;;11.05;8.25;;;;;;;20.64;100.00;101575.22;5010603;28;20065;-61
2023/08/20 03:52:15;;;;;;;12.95;9.68;;;;;;;20.65;100.00;101582.19;5006893;28;20042;-61
2023/08/20 03:54:41;;;;;;;10.82;8.98;;;;;;;20.64;100.00;101577.84;5011118;28;20076;-61
2023/08/20 03:57:06;;;;;;;9.02;7.45;;;;;;;20.65;100.00;101585.69;5008543;28;20750;-62
2023/08/20 03:59:33;;;;;;;15.77;8.02;;;;;;;20.69;100.00;101599.56;5011562;28;20065;-61
2023/08/20 04:01:58;;;;;;;11.48;8.77;;;;;;;20.74;100.00;101602.91;5007992;28;20087;-62
2023/08/20 04:04:24;;;;;;;10.57;9.05;;;;;;;20.80;100.00;101604.44;5005826;28;20038;-61
2023/08/20 04:06:50;;;;;;;10.20;8.80;;;;;;;20.84;100.00;101599.00;5005100;28;20060;-61
2023/08/20 04:09:16;;;;;;;8.80;7.80;;;;;;;20.86;100.00;101607.69;5006108;28;20586;-61
2023/08/20 04:11:41;;;;;;;10.85;8.23;;;;;;;20.91;100.00;101615.41;5009916;28;20137;-62
2023/08/20 04:14:07;;;;;;;10.48;8.18;;;;;;;20.92;100.00;101614.50;5011760;28;20533;-61
2023/08/20 04:16:32;;;;;;;10.90;8.23;;;;;;;20.92;100.00;101614.50;5012048;28;20073;-61
2023/08/20 04:18:58;;;;;;;11.88;8.55;;;;;;;20.90;100.00;101608.44;5008768;28;20082;-61
2023/08/20 04:21:23;;;;;;;12.35;8.27;;;;;;;20.88;100.00;101610.25;5011479;28;20056;-61
2023/08/20 04:23:48;;;;;;;10.00;8.82;;;;;;;20.83;100.00;101613.06;5007433;28;20043;-61
2023/08/20 04:26:14;;;;;;;10.15;7.47;;;;;;;20.78;100.00;101607.09;5006714;28;20041;-61
2023/08/20 04:28:39;;;;;;;9.80;8.02;;;;;;;20.76;100.00;101608.94;5005979;28;20056;-61
2023/08/20 04:31:04;;;;;;;11.80;8.45;;;;;;;20.75;100.00;101609.84;5004012;28;20087;-61
2023/08/20 04:33:30;;;;;;;8.98;7.32;;;;;;;20.74;100.00;101609.91;5006949;28;20505;-62
2023/08/20 04:35:55;;;;;;;11.63;7.40;;;;;;;20.71;100.00;101613.53;5002093;28;20283;-61
2023/08/20 04:38:22;;;;;;;9.73;6.72;;;;;;;20.68;100.00;101624.13;5004612;28;20026;-61
2023/08/20 04:40:48;;;;;;;10.57;9.00;;;;;;;20.63;100.00;101629.50;5006185;28;20037;-61
2023/08/20 04:43:13;;;;;;;12.50;9.88;;;;;;;20.57;100.00;101635.00;5004476;28;20049;-62
2023/08/20 04:45:39;;;;;;;11.88;8.63;;;;;;;20.54;100.00;101634.28;5003829;28;20038;-61
2023/08/20 04:48:04;;;;;;;11.07;8.88;;;;;;;20.50;100.00;101630.03;5006407;28;20038;-61
2023/08/20 04:50:30;;;;;;;11.43;8.73;;;;;;;20.49;100.00;101638.81;5005562;28;20013;-61
2023/08/20 04:52:55;;;;;;;11.52;8.68;;;;;;;20.47;100.00;101638.88;5005568;28;20061;-61
2023/08/20 04:55:21;;;;;;;10.93;8.55;;;;;;;20.47;100.00;101641.50;5003214;28;20033;-62
2023/08/20 04:57:46;;;;;;;10.80;8.82;;;;;;;20.45;100.00;101640.66;5003991;28;20151;-61
2023/08/20 05:00:12;;;;;;;15.52;11.38;;;;;;;20.42;100.00;101639.94;5003899;28;20030;-61
2023/08/20 05:02:37;;;;;;;17.63;10.75;;;;;;;20.43;100.00;101647.75;5005151;28;20075;-61
2023/08/20 05:05:03;;;;;;;13.73;11.25;;;;;;;20.48;100.00;101650.25;5007051;28;20057;-61
2023/08/20 05:07:28;;;;;;;11.35;9.55;;;;;;;20.52;100.00;101646.56;5006339;28;20042;-62
2023/08/20 05:09:54;;;;;;;15.80;10.60;;;;;;;20.54;100.00;101644.78;5012554;28;20045;-61
2023/08/20 05:12:19;;;;;;;11.18;9.57;;;;;;;20.54;100.00;101639.53;5011125;28;20048;-62
2023/08/20 05:14:44;;;;;;;9.57;8.48;;;;;;;20.56;100.00;101650.81;5012364;28;20037;-61
2023/08/20 05:17:10;;;;;;;13.52;10.10;;;;;;;20.58;100.00;101651.59;5006579;28;20155;-62
2023/08/20 05:19:35;;;;;;;12.75;10.15;;;;;;;20.66;100.00;101647.78;5003343;28;20052;-62
2023/08/20 05:22:01;;;;;;;12.02;8.45;;;;;;;20.83;100.00;101651.63;5005627;28;20088;-62
2023/08/20 05:24:26;;;;;;;15.45;9.82;;;;;;;20.97;100.00;101649.34;5010625;28;20060;-61
2023/08/20 05:27:08;;;;;;;14.20;9.27;;;;;;;21.06;100.00;101644.59;5010087;28;20034;-61
2023/08/20 05:29:33;;;;;;;11.30;7.85;;;;;;;21.11;100.00;101642.66;5014398;28;20054;-61
2023/08/20 05:31:59;;;;;;;10.52;8.15;;;;;;;21.17;100.00;101650.31;5017237;28;20048;-61
2023/08/20 05:34:24;;;;;;;9.98;7.05;;;;;;;21.18;100.00;101649.41;5005352;28;20064;-61
2023/08/20 05:36:50;;;;;;;11.13;7.30;;;;;;;21.18;100.00;101654.66;5007963;28;20089;-61
2023/08/20 05:39:15;;;;;;;15.40;8.80;;;;;;;21.20;100.00;101649.31;5008070;28;20045;-61
2023/08/20 05:41:41;;;;;;;12.35;9.45;;;;;;;21.20;100.00;101647.56;5008253;28;20037;-61
2023/08/20 05:44:06;;;;;;;13.13;9.63;;;;;;;21.19;100.00;101655.53;5019122;28;20670;-61
2023/08/20 05:46:32;;;;;;;10.32;8.57;;;;;;;21.18;100.00;101654.66;5018536;28;20107;-61
2023/08/20 05:48:57;;;;;;;13.80;9.52;;;;;;;21.22;100.00;101655.41;5011409;28;20042;-61
2023/08/20 05:51:22;;;;;;;13.40;9.18;;;;;;;21.26;100.00;101654.34;5010229;28;20061;-61
2023/08/20 05:53:48;;;;;;;11.65;8.80;;;;;;;21.30;100.00;101657.72;5020323;28;20099;-61
2023/08/20 05:56:13;;;;;;;11.32;9.00;;;;;;;21.33;100.00;101642.69;5015866;28;20799;-61
2023/08/20 05:58:38;;;;;;;10.27;8.60;;;;;;;21.39;100.00;101649.50;5010132;28;20041;-61
2023/08/20 06:01:04;;;;;;;14.07;9.70;;;;;;;21.44;100.00;101655.41;5014590;28;20034;-61
2023/08/20 06:03:29;;;;;;;10.45;8.23;;;;;;;21.51;100.00;101652.50;5013133;28;20524;-61
2023/08/20 06:05:57;;;;;;;10.40;7.57;;;;;;;21.57;100.00;101648.78;5008887;28;20034;-62
2023/08/20 06:08:23;;;;;;;14.13;8.85;;;;;;;21.60;100.00;101641.66;5004029;28;20041;-61
2023/08/20 06:10:48;;;;;;;15.15;9.75;;;;;;;21.61;100.00;101642.50;5010871;28;20091;-61
2023/08/20 06:13:14;;;;;;;15.32;9.93;;;;;;;21.62;100.00;101649.47;5012603;28;20037;-61
2023/08/20 06:15:39;;;;;;;16.73;11.43;;;;;;;21.69;100.00;101649.16;5011412;28;20038;-61
2023/08/20 06:18:05;;;;;;;12.57;9.10;;;;;;;21.74;100.00;101654.22;5005795;28;20029;-61
2023/08/20 06:20:30;;;;;;;16.30;11.32;;;;;;;21.76;100.00;101658.50;5005799;28;20766;-61
2023/08/20 06:22:55;;;;;;;17.13;11.63;;;;;;;21.74;100.00;101663.00;4997328;28;20041;-61
2023/08/20 06:25:21;;;;;;;14.57;10.20;;;;;;;21.75;100.00;101664.72;5015979;28;20068;-61
2023/08/20 06:27:46;;;;;;;16.23;11.27;;;;;;;21.79;100.00;101662.78;5014656;28;20037;-61
2023/08/20 06:30:12;;;;;;;20.85;11.48;;;;;;;21.85;100.00;101659.91;5017754;28;20025;-61
2023/08/20 06:32:37;;;;;;;17.95;12.30;;;;;;;21.89;100.00;101663.28;5019416;28;20033;-61
2023/08/20 06:35:03;;;;;;;18.02;12.65;;;;;;;21.90;100.00;101667.63;5015683;28;20408;-61
2023/08/20 06:37:28;;;;;;;18.85;12.35;;;;;;;21.89;100.00;101664.16;5013297;28;20038;-61
2023/08/20 06:39:54;;;;;;;20.27;12.95;;;;;;;21.84;100.00;101660.00;5012679;28;20038;-61
2023/08/20 06:42:19;;;;;;;18.63;13.75;;;;;;;21.85;100.00;101653.81;5011588;28;20046;-61
2023/08/20 06:44:44;;;;;;;22.27;15.02;;;;;;;21.87;100.00;101665.13;5006541;28;20041;-61
2023/08/20 06:47:10;;;;;;;18.65;13.30;;;;;;;21.90;100.00;101660.59;5006932;28;20033;-61
2023/08/20 06:49:35;;;;;;;19.33;13.07;;;;;;;21.98;100.00;101660.28;5018669;28;20038;-61
2023/08/20 06:52:01;;;;;;;18.88;14.25;;;;;;;22.03;100.00;101656.53;5017869;28;20469;-62
2023/08/20 06:54:26;;;;;;;25.38;17.70;;;;;;;22.05;100.00;101657.34;5010142;28;20053;-62
2023/08/20 06:56:51;;;;;;;21.95;16.38;;;;;;;22.11;100.00;101656.22;5019697;28;20755;-61
2023/08/20 06:59:17;;;;;;;20.50;14.13;;;;;;;22.20;100.00;101663.75;5014293;28;20037;-62
2023/08/20 07:01:42;;;;;;;19.65;15.55;;;;;;;22.23;100.00;101669.72;5014413;28;20056;-62
2023/08/20 07:04:08;;;;;;;23.58;16.50;;;;;;;22.30;100.00;101671.19;5014242;28;20503;-62
2023/08/20 07:06:33;;;;;;;22.92;15.63;;;;;;;22.36;99.80;101672.69;5018979;28;20409;-66
2023/08/20 07:08:59;;;;;;;18.08;12.90;;;;;;;22.43;99.48;101663.66;5012419;28;20151;-65
2023/08/20 07:11:24;;;;;;;17.83;12.80;;;;;;;22.50;99.48;101662.44;5016442;28;20087;-67
2023/08/20 07:13:49;;;;;;;16.80;13.30;;;;;;;22.56;99.14;101667.44;5018667;28;20048;-66
2023/08/20 07:16:15;;;;;;;19.50;12.90;;;;;;;22.63;98.86;101663.63;5021770;28;20037;-66
2023/08/20 07:18:40;;;;;;;17.75;15.05;;;;;;;22.69;98.42;101670.41;5014098;28;20049;-66
2023/08/20 07:21:07;;;;;;;22.77;15.82;;;;;;;22.75;97.98;101670.13;5030058;28;20132;-66
2023/08/20 07:23:33;;;;;;;21.48;16.48;;;;;;;22.78;97.76;101662.97;5013249;28;20160;-66
2023/08/20 07:26:12;;;;;;;19.38;15.00;;;;;;;22.87;97.75;101669.59;5010559;28;20103;-66
2023/08/20 07:31:22;;;;;;;18.27;14.23;;;;;;;22.98;97.29;101680.50;5010581;28;20569;-66
2023/08/20 07:33:48;;;;;;;23.27;17.10;;;;;;;23.05;96.60;101679.31;5019856;28;20041;-67
2023/08/20 07:36:14;;;;;;;23.63;17.17;;;;;;;23.14;96.12;101673.63;5016020;28;20033;-66
2023/08/20 07:38:43;;;;;;;26.88;21.50;;;;;;;23.19;94.89;101673.44;5016126;28;20034;-67
2023/08/20 07:41:10;;;;;;;23.83;17.10;;;;;;;23.24;94.38;101669.69;5014787;28;20034;-66
2023/08/20 07:43:37;;;;;;;19.05;14.82;;;;;;;23.29;94.59;101672.09;5011026;28;20046;-66
2023/08/20 07:46:04;;;;;;;22.88;15.75;;;;;;;23.33;94.71;101674.50;5020617;28;20030;-66
2023/08/20 07:48:29;;;;;;;21.98;15.80;;;;;;;23.36;94.70;101669.06;5015793;28;20275;-65
2023/08/20 07:50:54;;;;;;;25.08;14.95;;;;;;;23.43;94.40;101667.88;5023483;28;20025;-65
2023/08/20 07:53:20;;;;;;;21.02;12.95;;;;;;;23.53;94.25;101659.50;5021057;28;20112;-66
2023/08/20 07:55:45;;;;;;;22.20;16.50;;;;;;;23.59;93.66;101653.94;5018129;28;20041;-66
2023/08/20 07:58:11;;;;;;;25.08;17.23;;;;;;;23.63;93.31;101663.44;5016928;28;20034;-66
2023/08/20 08:00:36;;;;;;;23.58;14.75;;;;;;;23.65;92.98;101662.44;5023266;28;20045;-66
2023/08/20 08:03:01;;;;;;;23.42;17.27;;;;;;;23.67;92.09;101657.06;5007420;28;20462;-65
2023/08/20 08:05:28;;;;;;;21.48;16.52;;;;;;;23.73;91.54;101660.25;5009514;28;20185;-66
2023/08/20 08:07:54;;;;;;;23.90;17.02;;;;;;;23.84;91.43;101659.72;5018764;28;20038;-66
2023/08/20 08:10:19;;;;;;;23.17;17.45;;;;;;;23.93;90.28;101656.63;5008845;28;20042;-66
2023/08/20 08:12:45;;;;;;;22.77;15.43;;;;;;;23.95;89.96;101665.41;5023597;28;20506;-66
2023/08/20 08:15:11;;;;;;;24.58;16.27;;;;;;;24.00;89.69;101663.38;5012096;28;20506;-66
2023/08/20 08:17:36;;;;;;;22.88;15.75;;;;;;;24.07;89.28;101672.72;5019106;28;20057;-66
2023/08/20 08:20:03;;;;;;;19.83;14.93;;;;;;;24.14;89.32;101671.44;5016774;28;20037;-67
2023/08/20 08:22:28;;;;;;;21.15;15.60;;;;;;;24.14;87.93;101673.22;5020512;28;20033;-66
2023/08/20 08:24:53;;;;;;;26.38;16.40;;;;;;;24.18;88.21;101672.16;5007174;28;20803;-66
2023/08/20 08:27:19;;;;;;;20.45;15.10;;;;;;;24.32;87.58;101667.88;5008974;28;20042;-66
2023/08/20 08:29:45;;;;;;;19.75;12.65;;;;;;;24.36;85.60;101661.53;5022142;28;20076;-66
2023/08/20 08:32:10;;;;;;;14.55;11.35;;;;;;;24.46;85.24;101667.19;5014889;28;20030;-66
2023/08/20 08:34:35;;;;;;;19.20;13.18;;;;;;;24.50;85.10;101666.94;5022747;28;20148;-66
2023/08/20 08:37:01;;;;;;;27.33;13.48;;;;;;;24.56;85.00;101673.69;5006933;28;20565;-66
2023/08/20 08:39:26;;;;;;;17.38;13.43;;;;;;;24.58;84.36;101671.81;5007147;28;20069;-66
2023/08/20 08:41:58;;;;;;;16.52;12.70;;;;;;;24.70;84.12;101673.03;4998399;28;20422;-66
2023/08/20 08:44:24;;;;;;;17.15;10.73;;;;;;;24.87;84.92;101679.13;5006349;28;20049;-66
2023/08/20 08:46:50;;;;;;;18.40;13.55;;;;;;;25.03;83.62;101669.41;5006584;28;20096;-66
2023/08/20 08:49:16;;;;;;;13.95;10.50;;;;;;;25.02;82.61;101673.03;5010973;28;20115;-66
2023/08/20 08:51:44;;;;;;;15.02;10.77;;;;;;;25.05;81.88;101670.22;5009876;28;20457;-66
2023/08/20 08:54:10;;;;;;;14.00;9.55;;;;;;;25.14;81.29;101666.22;5016883;28;20117;-66
2023/08/20 08:56:35;;;;;;;11.82;9.18;;;;;;;25.21;77.94;101649.03;5005705;28;20505;-67
2023/08/20 08:59:01;;;;;;;11.50;8.40;;;;;;;25.28;76.11;101641.63;5004158;28;20052;-61
2023/08/20 09:01:26;;;;;;;9.80;7.03;;;;;;;25.43;76.07;101646.97;5003992;28;20077;-62
2023/08/20 09:03:51;;;;;;;8.30;6.38;;;;;;;25.45;76.49;101654.78;5013300;28;20045;-62
2023/08/20 09:06:17;;;;;;;10.35;6.93;;;;;;;25.40;71.80;101609.19;5000002;28;20048;-62
2023/08/20 09:08:42;;;;;;;9.77;6.80;;;;;;;25.53;72.72;101636.72;5011162;28;20041;-62
2023/08/20 09:11:08;;;;;;;8.85;7.20;;;;;;;25.59;71.74;101623.94;5007458;28;20121;-62
2023/08/20 09:13:33;;;;;;;11.35;9.02;;;;;;;25.54;72.29;101633.97;5002349;28;20081;-62
2023/08/20 09:15:59;;;;;;;9.15;6.97;;;;;;;25.54;73.15;101641.91;5010601;28;20402;-61
2023/08/20 09:18:24;;;;;;;8.75;7.35;;;;;;;25.62;73.86;101650.25;5003983;28;20033;-60
2023/08/20 09:20:50;;;;;;;9.70;7.38;;;;;;;25.73;71.40;101617.03;5008135;28;20267;-61
2023/08/20 09:23:16;;;;;;;9.73;7.07;;;;;;;25.80;72.31;101634.28;5009669;28;20052;-63
2023/08/20 09:25:42;;;;;;;9.98;6.85;;;;;;;25.81;71.44;101641.25;5005146;28;20037;-63
2023/08/20 09:28:07;;;;;;;11.80;6.75;;;;;;;25.88;71.02;101627.59;5002593;28;20129;-63
2023/08/20 09:30:34;;;;;;;9.35;7.30;;;;;;;25.85;70.66;101634.84;5004856;28;20757;-63
2023/08/20 09:33:04;;;;;;;9.02;6.50;;;;;;;26.01;70.95;101641.81;5011245;28;20037;-62
2023/08/20 09:35:29;;;;;;;10.35;6.65;;;;;;;26.17;70.94;101642.66;5005125;28;20034;-63
2023/08/20 09:38:03;;;;;;;6.88;6.18;;;;;;;26.30;70.01;101629.53;5006405;28;20044;-63
2023/08/20 09:40:29;;;;;;;9.97;6.93;;;;;;;26.35;69.06;101622.16;5005815;28;20041;-63
2023/08/20 09:42:56;;;;;;;9.70;6.82;;;;;;;26.32;68.01;101617.03;4991985;28;20063;-63
2023/08/20 09:45:24;;;;;;;11.45;7.88;;;;;;;26.42;68.34;101627.94;5009455;28;20046;-62
2023/08/20 09:47:55;;;;;;;9.85;7.25;;;;;;;26.46;68.53;101621.47;5015174;28;20037;-63
2023/08/20 09:50:22;;;;;;;7.63;6.53;;;;;;;26.47;68.78;101632.00;5010677;28;20046;-63
2023/08/20 09:53:03;;;;;;;8.90;6.50;;;;;;;26.52;67.98;101616.66;5016231;28;20034;-62
2023/08/20 09:55:33;;;;;;;9.20;6.82;;;;;;;26.54;67.07;101614.75;5012740;28;20056;-62
2023/08/20 09:58:00;;;;;;;10.10;7.32;;;;;;;26.66;65.96;101602.53;5012539;28;20045;-62
2023/08/20 10:00:27;;;;;;;10.40;7.15;;;;;;;26.65;65.97;101608.81;5018174;28;20709;-62
2023/08/20 10:02:52;;;;;;;12.27;8.00;;;;;;;26.41;66.36;101631.53;5014449;28;20034;-62
2023/08/20 10:05:20;;;;;;;10.48;6.82;;;;;;;26.40;66.80;101633.31;5018038;28;20040;-63
2023/08/20 10:07:46;;;;;;;8.35;7.10;;;;;;;26.50;66.24;101620.38;5018344;28;20038;-63
2023/08/20 10:10:13;;;;;;;10.48;8.40;;;;;;;26.68;64.54;101596.22;5020333;28;20033;-62
2023/08/20 10:12:39;;;;;;;12.82;8.45;;;;;;;26.79;65.82;101608.84;5014639;28;20375;-62
2023/08/20 10:15:07;;;;;;;11.00;8.25;;;;;;;26.84;65.67;101614.69;5019828;28;20021;-62
2023/08/20 10:17:33;;;;;;;11.77;8.48;;;;;;;26.98;65.58;101617.38;5013648;28;20022;-62
2023/08/20 10:20:00;;;;;;;10.05;7.65;;;;;;;27.16;65.98;101616.16;5017266;28;20042;-59
2023/08/20 10:22:40;;;;;;;8.77;7.30;;;;;;;27.32;65.19;101613.38;5018895;28;20100;-59
2023/08/20 10:25:10;;;;;;;7.60;6.50;;;;;;;27.48;64.80;101603.53;5013082;28;20103;-60
2023/08/20 10:27:42;;;;;;;10.35;6.72;;;;;;;27.68;63.12;101595.09;5013310;28;20042;-60
2023/08/20 10:30:16;;;;;;;7.63;6.78;;;;;;;27.77;61.91;101585.66;5011625;28;20486;-60
2023/08/20 10:32:52;;;;;;;11.38;7.75;;;;;;;27.91;62.34;101600.69;5016421;28;20041;-60
2023/08/20 10:35:27;;;;;;;9.65;7.38;;;;;;;27.80;61.52;101582.78;5022487;28;20049;-60
2023/08/20 10:38:21;;;;;;;11.10;7.32;;;;;;;27.96;61.91;101591.44;5031043;28;20128;-60
2023/08/20 10:40:48;;;;;;;9.32;7.05;;;;;;;27.92;61.89;101583.75;5026559;28;20041;-63
2023/08/20 10:43:25;;;;;;;8.57;6.93;;;;;;;28.02;61.02;101571.56;5023948;28;20046;-63
2023/08/20 10:46:06;;;;;;;9.15;7.40;;;;;;;28.13;61.22;101585.00;5012014;28;20115;-63
2023/08/20 10:48:33;;;;;;;8.85;6.72;;;;;;;28.24;60.79;101579.78;5009890;28;20042;-63
2023/08/20 10:51:09;;;;;;;8.93;7.05;;;;;;;28.30;59.99;101571.38;5009470;28;20041;-62
2023/08/20 10:53:34;;;;;;;11.70;7.68;;;;;;;28.30;58.56;101542.97;5006583;28;20021;-63
2023/08/20 10:56:11;;;;;;;9.65;6.97;;;;;;;28.45;59.28;101572.13;5019135;28;20038;-67
2023/08/20 10:58:40;;;;;;;8.77;7.07;;;;;;;28.42;59.74;101578.50;5014240;28;20061;-66
2023/08/20 11:01:20;;;;;;;8.40;6.97;;;;;;;28.40;61.05;101593.72;5021736;28;20037;-67
2023/08/20 11:03:48;;;;;;;7.43;6.72;;;;;;;28.49;59.92;101578.94;5010849;28;20091;-67
2023/08/20 11:06:14;;;;;;;8.00;7.10;;;;;;;28.73;59.96;101575.44;5018512;28;20037;-68
2023/08/20 11:08:41;;;;;;;9.70;7.95;;;;;;;28.87;59.67;101577.94;5025792;28;20040;-67
2023/08/20 11:11:07;;;;;;;9.52;7.25;;;;;;;29.13;59.71;101580.53;5019063;28;20033;-67